Time;durP1;ratioP1;P1;durP2;ratioP2;P2;SDS_P1;SDS_P2;PMS_P1;PMS_P2;Temp;Humidity;BMP_temperature;BMP_pressure;BME280_temperature;BME280_humidity;BME280_pressure;Samples;Min_cycle;Max_cycle;Signal;HPM_P1;HPM_P2
2022/09/27 00:00:06;;;;;;;;;;;17.20;99.90;;;;;;4972978;28;19979;-68
2022/09/27 00:02:33;;;;;;;;;;;17.50;99.90;;;;;;4972253;28;19914;-68
2022/09/27 00:04:59;;;;;;;;;;;17.80;99.90;;;;;;4972767;28;19919;-69
2022/09/27 00:07:26;;;;;;;;;;;18.10;99.90;;;;;;4972587;28;19910;-68
2022/09/27 00:09:52;;;;;;;;;;;18.40;99.90;;;;;;4972479;28;19917;-68
2022/09/27 00:12:19;;;;;;;;;;;18.50;99.90;;;;;;4972648;28;19910;-69
2022/09/27 00:14:46;;;;;;;;;;;18.70;99.90;;;;;;4972845;28;19914;-68
2022/09/27 00:17:12;;;;;;;;;;;18.90;99.90;;;;;;4972427;28;19997;-69
2022/09/27 00:19:39;;;;;;;;;;;19.10;99.90;;;;;;4972356;28;20378;-68
2022/09/27 00:22:05;;;;;;;;;;;19.20;99.90;;;;;;4972306;28;19963;-68
2022/09/27 00:24:33;;;;;;;;;;;19.20;99.90;;;;;;4972206;28;19963;-68
2022/09/27 00:26:59;;;;;;;;;;;19.30;99.90;;;;;;4972186;28;19910;-68
2022/09/27 00:29:26;;;;;;;;;;;19.40;99.90;;;;;;4972141;28;19910;-69
2022/09/27 00:31:52;;;;;;;;;;;19.40;99.90;;;;;;4972413;28;20007;-67
2022/09/27 00:34:21;;;;;;;;;;;19.50;99.90;;;;;;4972043;28;20367;-69
2022/09/27 00:36:47;;;;;;;;;;;19.50;99.90;;;;;;4972181;28;20008;-68
2022/09/27 00:39:14;;;;;;;;;;;19.60;99.90;;;;;;4971947;28;19918;-68
2022/09/27 00:41:41;;;;;;;;;;;19.70;99.90;;;;;;4971721;28;19953;-69
2022/09/27 00:47:11;;;;;;;;;;;19.80;99.90;;;;;;4972031;28;20068;-70
2022/09/27 00:49:40;;;;;;;;;;;19.90;99.90;;;;;;4971961;28;20419;-68
2022/09/27 00:52:10;;;;;;;;;;;19.80;99.90;;;;;;4972337;28;19975;-70
2022/09/27 00:54:38;;;;;;;;;;;19.80;99.90;;;;;;4972119;28;19911;-70
2022/09/27 00:57:05;;;;;;;;;;;19.90;99.90;;;;;;4971821;28;19910;-68
2022/09/27 00:59:36;;;;;;;;;;;20.00;99.90;;;;;;4971385;28;19933;-70
2022/09/27 01:02:05;;;;;;;;;;;20.00;99.90;;;;;;4971677;28;19963;-69
2022/09/27 01:04:32;;;;;;;;;;;20.10;99.90;;;;;;4971600;28;20366;-69
2022/09/27 01:06:58;;;;;;;;;;;20.30;99.90;;;;;;4971816;28;20366;-70
2022/09/27 01:09:25;;;;;;;;;;;20.40;99.90;;;;;;4971975;28;19960;-69
2022/09/27 01:12:24;;;;;;;;;;;20.40;99.90;;;;;;4971744;28;20012;-70
2022/09/27 01:15:00;;;;;;;;;;;20.50;99.90;;;;;;4959840;28;19950;-68
2022/09/27 01:17:45;;;;;;;;;;;20.70;99.90;;;;;;4971472;28;19910;-68
2022/09/27 01:20:14;;;;;;;;;;;20.90;99.90;;;;;;4971235;28;19910;-68
2022/09/27 01:22:53;;;;;;;;;;;21.10;99.90;;;;;;4969161;28;20009;-68
2022/09/27 01:25:33;;;;;;;;;;;21.20;99.90;;;;;;4960393;28;19951;-70
2022/09/27 01:28:00;;;;;;;;;;;21.40;99.90;;;;;;4962452;28;19921;-70
2022/09/27 01:30:46;;;;;;;;;;;21.40;99.90;;;;;;4970176;28;19921;-70
2022/09/27 01:33:25;;;;;;;;;;;21.30;99.90;;;;;;4968442;28;19910;-69
2022/09/27 01:36:07;;;;;;;;;;;21.60;99.90;;;;;;4970087;28;19917;-68
2022/09/27 01:38:41;;;;;;;;;;;21.70;99.90;;;;;;4969518;28;19911;-68
2022/09/27 01:41:11;;;;;;;;;;;21.80;99.90;;;;;;4969678;28;19914;-67
2022/09/27 01:43:49;;;;;;;;;;;21.90;99.90;;;;;;4970971;28;19910;-69
2022/09/27 01:46:36;;;;;;;;;;;21.70;99.90;;;;;;4970676;28;19929;-68
2022/09/27 01:49:05;;;;;;;;;;;21.70;99.90;;;;;;4967644;28;19923;-68
2022/09/27 01:51:41;;;;;;;;;;;21.70;99.90;;;;;;4961869;28;20358;-69
2022/09/27 01:54:11;;;;;;;;;;;21.80;99.90;;;;;;4970469;28;20393;-68
2022/09/27 01:56:49;;;;;;;;;;;21.90;99.90;;;;;;4970713;28;20007;-68
2022/09/27 01:59:20;;;;;;;;;;;22.00;99.90;;;;;;4969363;28;20279;-68
2022/09/27 02:02:00;;;;;;;;;;;22.20;99.90;;;;;;5108184;27;19913;-69
2022/09/27 02:04:29;;;;;;;;;;;22.20;98.00;;;;;;5109616;28;19912;-68
2022/09/27 02:06:58;;;;;;;;;;;22.60;98.20;;;;;;5109800;28;19912;-70
2022/09/27 02:09:33;;;;;;;;;;;23.00;97.10;;;;;;5109143;28;20372;-68
2022/09/27 02:12:03;;;;;;;;;;;23.20;96.30;;;;;;5109357;28;19915;-70
2022/09/27 02:14:35;;;;;;;;;;;23.50;95.60;;;;;;5109423;28;19995;-69
2022/09/27 02:17:19;;;;;;;;;;;23.60;96.10;;;;;;5108666;28;19904;-69
2022/09/27 02:20:07;;;;;;;;;;;23.60;94.90;;;;;;5108857;28;19970;-70
2022/09/27 02:22:46;;;;;;;;;;;23.50;95.60;;;;;;5109015;28;20357;-71
2022/09/27 02:25:31;;;;;;;;;;;23.20;94.50;;;;;;5109213;28;19915;-69
2022/09/27 02:27:57;;;;;;;;;;;23.10;95.10;;;;;;5108797;28;19952;-69
2022/09/27 02:30:24;;;;;;;;;;;23.10;94.60;;;;;;5109163;28;19930;-71
2022/09/27 02:32:51;;;;;;;;;;;23.00;95.10;;;;;;5109245;28;20283;-70
2022/09/27 02:35:20;;;;;;;;;;;22.80;95.00;;;;;;5108974;28;19913;-70
2022/09/27 02:37:47;;;;;;;;;;;22.80;94.30;;;;;;5109143;28;19915;-70
2022/09/27 02:40:14;;;;;;;;;;;23.10;93.80;;;;;;5109315;28;20301;-70
2022/09/27 02:42:42;;;;;;;;;;;23.70;92.60;;;;;;5109179;28;19985;-71
2022/09/27 02:45:09;;;;;;;;;;;24.60;93.50;;;;;;5108648;28;19912;-70
2022/09/27 02:47:39;;;;;;;;;;;24.80;91.40;;;;;;5109114;28;19912;-70
2022/09/27 02:50:25;;;;;;;;;;;24.90;90.50;;;;;;5107794;28;19915;-69
2022/09/27 02:53:11;;;;;;;;;;;24.60;90.60;;;;;;5108799;28;19912;-69
2022/09/27 02:55:38;;;;;;;;;;;24.30;91.10;;;;;;5106412;28;19970;-70
2022/09/27 02:58:07;;;;;;;;;;;24.00;91.40;;;;;;5108419;28;19943;-71
2022/09/27 03:00:54;;;;;;;;;;;24.00;92.00;;;;;;5117472;28;19924;-71
2022/09/27 03:03:26;;;;;;;;;;;24.00;91.90;;;;;;5118221;28;20451;-69
2022/09/27 03:06:04;;;;;;;;;;;24.30;92.40;;;;;;5129310;28;19908;-72
2022/09/27 03:08:31;;;;;;;;;;;24.50;92.50;;;;;;5129083;28;19908;-70
2022/09/27 03:10:57;;;;;;;;;;;24.70;91.70;;;;;;5129110;28;19908;-70
2022/09/27 03:13:24;;;;;;;;;;;25.00;91.80;;;;;;5114985;28;20348;-70
2022/09/27 03:15:51;;;;;;;;;;;24.90;91.00;;;;;;5115465;28;19907;-71
2022/09/27 03:18:17;;;;;;;;;;;24.90;91.70;;;;;;5114785;28;19908;-71
2022/09/27 03:20:44;;;;;;;;;;;25.30;91.40;;;;;;5114805;28;19916;-70
2022/09/27 03:23:11;;;;;;;;;;;25.90;90.80;;;;;;5114546;28;19930;-70
2022/09/27 03:25:37;;;;;;;;;;;26.90;90.00;;;;;;5113389;28;20496;-68
2022/09/27 03:28:04;;;;;;;;;;;27.60;89.60;;;;;;5113449;28;20006;-70
2022/09/27 03:30:31;;;;;;;;;;;28.20;86.60;;;;;;5110611;28;19911;-69
2022/09/27 03:32:58;;;;;;;;;;;28.50;85.20;;;;;;5113639;28;19908;-69
2022/09/27 03:35:24;;;;;;;;;;;28.00;85.60;;;;;;5113414;28;20003;-70
2022/09/27 03:37:51;;;;;;;;;;;28.00;86.10;;;;;;5110493;28;19907;-69
2022/09/27 03:40:18;;;;;;;;;;;27.90;84.90;;;;;;5112780;28;20284;-69
2022/09/27 03:42:45;;;;;;;;;;;27.60;85.90;;;;;;5112876;28;19961;-71
2022/09/27 03:45:12;;;;;;;;;;;27.30;84.90;;;;;;5113324;28;19914;-70
2022/09/27 03:47:40;;;;;;;;;;;26.70;86.60;;;;;;5113115;28;19911;-69
2022/09/27 03:50:07;;;;;;;;;;;26.30;87.30;;;;;;5091676;28;19936;-69
2022/09/27 03:52:34;;;;;;;;;;;25.80;87.00;;;;;;5111567;28;19916;-69
2022/09/27 03:55:01;;;;;;;;;;;25.20;86.70;;;;;;5112767;28;19907;-71
2022/09/27 03:57:29;;;;;;;;;;;24.50;88.70;;;;;;5112770;28;20295;-70
2022/09/27 03:59:58;;;;;;;;;;;23.90;90.60;;;;;;5106893;28;19924;-70
2022/09/27 04:02:26;;;;;;;;;;;23.40;91.20;;;;;;5112224;28;19912;-70
2022/09/27 04:04:52;;;;;;;;;;;23.10;91.60;;;;;;5111949;28;20234;-70
2022/09/27 04:07:19;;;;;;;;;;;23.00;92.10;;;;;;5112017;28;20464;-69
2022/09/27 04:09:46;;;;;;;;;;;22.80;92.50;;;;;;5110511;28;19920;-72
2022/09/27 04:12:13;;;;;;;;;;;22.60;92.70;;;;;;5111695;28;19908;-71
2022/09/27 04:14:40;;;;;;;;;;;22.40;93.20;;;;;;5112061;28;20368;-70
2022/09/27 04:17:07;;;;;;;;;;;22.30;93.00;;;;;;5112150;28;19908;-70
2022/09/27 04:19:33;;;;;;;;;;;22.40;93.20;;;;;;5111609;28;19959;-72
2022/09/27 04:22:00;;;;;;;;;;;22.60;92.60;;;;;;5111697;28;20249;-72
2022/09/27 04:24:27;;;;;;;;;;;22.60;92.80;;;;;;5110203;28;19908;-70
2022/09/27 04:26:54;;;;;;;;;;;22.40;92.80;;;;;;5112452;28;20356;-71
2022/09/27 04:29:20;;;;;;;;;;;22.20;93.50;;;;;;5097179;28;19953;-69
2022/09/27 04:31:47;;;;;;;;;;;21.80;93.40;;;;;;5112879;28;19992;-70
2022/09/27 04:34:14;;;;;;;;;;;21.60;93.50;;;;;;5113386;28;19912;-70
2022/09/27 04:36:40;;;;;;;;;;;21.40;93.70;;;;;;5113211;28;20379;-70
2022/09/27 04:39:08;;;;;;;;;;;21.30;94.30;;;;;;5097533;28;19908;-70
2022/09/27 04:41:35;;;;;;;;;;;21.10;94.70;;;;;;5112698;28;20382;-70
2022/09/27 04:44:02;;;;;;;;;;;21.00;95.10;;;;;;5112860;28;19912;-71
2022/09/27 04:46:30;;;;;;;;;;;21.00;96.20;;;;;;5113039;28;19990;-71
2022/09/27 04:48:58;;;;;;;;;;;20.90;96.40;;;;;;5094594;28;20347;-70
2022/09/27 04:51:25;;;;;;;;;;;20.70;96.50;;;;;;5112597;28;19931;-70
2022/09/27 04:53:52;;;;;;;;;;;20.70;96.50;;;;;;5099660;28;19919;-71
2022/09/27 04:56:19;;;;;;;;;;;20.70;96.10;;;;;;5092163;28;19977;-71
2022/09/27 04:58:46;;;;;;;;;;;20.60;95.90;;;;;;5092011;28;19919;-72
2022/09/27 05:01:12;;;;;;;;;;;20.60;96.30;;;;;;5092230;28;20376;-71
2022/09/27 05:03:39;;;;;;;;;;;20.50;96.60;;;;;;5103491;28;19908;-71
2022/09/27 05:06:06;;;;;;;;;;;20.50;97.10;;;;;;5112855;28;19918;-72
2022/09/27 05:08:33;;;;;;;;;;;20.40;96.80;;;;;;5108746;28;19908;-69
2022/09/27 05:11:00;;;;;;;;;;;20.40;96.40;;;;;;5111747;28;19907;-68
2022/09/27 05:13:26;;;;;;;;;;;20.30;96.50;;;;;;5112113;28;19915;-76
2022/09/27 05:15:53;;;;;;;;;;;20.40;96.30;;;;;;5112302;28;19912;-69
2022/09/27 05:18:20;;;;;;;;;;;20.40;96.50;;;;;;5112452;28;20323;-69
2022/09/27 05:20:46;;;;;;;;;;;20.40;96.60;;;;;;5112402;28;19922;-71
2022/09/27 05:23:14;;;;;;;;;;;20.40;96.30;;;;;;5112508;28;19908;-71
2022/09/27 05:25:41;;;;;;;;;;;20.40;96.70;;;;;;5112312;28;19915;-71
2022/09/27 05:28:08;;;;;;;;;;;20.50;97.00;;;;;;5112602;28;19907;-72
2022/09/27 05:30:35;;;;;;;;;;;20.50;97.00;;;;;;5112413;28;20028;-72
2022/09/27 05:33:02;;;;;;;;;;;20.70;96.30;;;;;;5112264;28;19914;-71
2022/09/27 05:35:29;;;;;;;;;;;20.90;96.10;;;;;;5111654;28;20023;-70
2022/09/27 05:37:57;;;;;;;;;;;21.20;95.80;;;;;;5112026;28;19912;-69
2022/09/27 05:40:24;;;;;;;;;;;21.50;95.00;;;;;;5112108;28;19923;-71
2022/09/27 05:42:51;;;;;;;;;;;21.50;94.60;;;;;;5112188;28;19977;-71
2022/09/27 05:45:19;;;;;;;;;;;21.40;94.70;;;;;;5112273;28;19914;-71
2022/09/27 05:47:52;;;;;;;;;;;21.20;95.20;;;;;;5111929;28;19947;-69
2022/09/27 05:50:19;;;;;;;;;;;21.10;95.20;;;;;;5112021;28;20268;-70
2022/09/27 05:52:46;;;;;;;;;;;21.00;95.00;;;;;;5111636;28;19965;-70
2022/09/27 05:55:12;;;;;;;;;;;20.90;95.00;;;;;;5111566;28;19914;-69
2022/09/27 05:57:39;;;;;;;;;;;20.80;95.40;;;;;;5111207;28;19911;-71
2022/09/27 06:00:06;;;;;;;;;;;20.80;95.30;;;;;;5110069;28;19970;-71
2022/09/27 06:02:34;;;;;;;;;;;20.60;95.50;;;;;;5110377;28;20431;-73
2022/09/27 06:05:02;;;;;;;;;;;20.60;96.00;;;;;;5110123;28;19908;-72
2022/09/27 06:07:30;;;;;;;;;;;20.50;96.40;;;;;;5110037;28;20355;-73
2022/09/27 06:09:57;;;;;;;;;;;20.40;97.00;;;;;;5109543;28;19912;-71
2022/09/27 06:12:24;;;;;;;;;;;20.40;97.60;;;;;;5110705;28;20399;-72
2022/09/27 06:14:50;;;;;;;;;;;20.20;97.90;;;;;;5112204;28;19908;-69
2022/09/27 06:17:17;;;;;;;;;;;20.20;98.30;;;;;;5112176;28;20307;-69
2022/09/27 06:19:44;;;;;;;;;;;20.10;98.50;;;;;;5112433;28;20286;-70
2022/09/27 06:22:10;;;;;;;;;;;20.00;98.90;;;;;;5111243;28;20413;-72
2022/09/27 06:24:37;;;;;;;;;;;19.90;99.00;;;;;;5112024;28;19915;-71
2022/09/27 06:27:03;;;;;;;;;;;19.80;99.50;;;;;;5112093;28;19908;-70
2022/09/27 06:29:34;;;;;;;;;;;19.70;99.20;;;;;;5112293;28;19919;-71
2022/09/27 06:32:00;;;;;;;;;;;19.60;99.20;;;;;;5111985;28;19951;-70
2022/09/27 06:34:27;;;;;;;;;;;19.60;99.40;;;;;;5112098;28;20380;-71
2022/09/27 06:36:54;;;;;;;;;;;19.50;99.50;;;;;;5111978;28;19908;-71
2022/09/27 06:39:20;;;;;;;;;;;19.40;99.30;;;;;;5112473;28;19934;-71
2022/09/27 06:41:47;;;;;;;;;;;19.40;99.00;;;;;;5111778;28;19943;-71
2022/09/27 06:44:13;;;;;;;;;;;19.30;99.20;;;;;;5111980;28;19915;-71
2022/09/27 06:46:41;;;;;;;;;;;19.30;99.30;;;;;;5110777;28;19923;-72
2022/09/27 06:49:08;;;;;;;;;;;19.20;99.30;;;;;;5111995;28;19990;-69
2022/09/27 06:51:35;;;;;;;;;;;19.20;99.30;;;;;;5114079;28;20007;-71
2022/09/27 06:54:01;;;;;;;;;;;19.10;99.50;;;;;;5113740;28;20400;-72
2022/09/27 06:56:28;;;;;;;;;;;19.00;99.60;;;;;;5113775;28;20011;-71
2022/09/27 07:01:39;;;;;;;;;;;19.00;99.90;;;;;;5111161;28;20003;-71
2022/09/27 07:04:06;;;;;;;;;;;19.00;99.90;;;;;;5114880;28;20074;-71
2022/09/27 07:06:34;;;;;;;;;;;18.90;99.90;;;;;;5114698;28;19960;-72
2022/09/27 07:09:01;;;;;;;;;;;18.90;99.90;;;;;;5115082;28;19908;-70
2022/09/27 07:11:27;;;;;;;;;;;18.90;99.90;;;;;;5114417;28;19908;-69
2022/09/27 07:13:55;;;;;;;;;;;19.00;99.90;;;;;;5113637;28;19928;-71
2022/09/27 07:16:21;;;;;;;;;;;19.00;99.90;;;;;;5113854;28;20383;-69
2022/09/27 07:18:49;;;;;;;;;;;18.90;99.90;;;;;;5113498;28;19911;-69
2022/09/27 07:21:15;;;;;;;;;;;18.90;99.90;;;;;;5113283;28;19919;-72
2022/09/27 07:23:42;;;;;;;;;;;18.80;99.70;;;;;;5113553;28;20352;-69
2022/09/27 07:26:09;;;;;;;;;;;18.80;99.60;;;;;;5113148;28;20367;-70
2022/09/27 07:28:36;;;;;;;;;;;18.80;99.20;;;;;;5113659;28;19912;-72
2022/09/27 07:31:03;;;;;;;;;;;18.80;99.50;;;;;;5113110;28;19955;-71
2022/09/27 07:33:30;;;;;;;;;;;18.80;98.80;;;;;;5113080;28;20007;-72
2022/09/27 07:35:56;;;;;;;;;;;18.80;98.40;;;;;;5111437;28;20007;-71
2022/09/27 07:38:23;;;;;;;;;;;18.80;98.30;;;;;;5110316;28;19911;-68
2022/09/27 07:40:50;;;;;;;;;;;18.80;98.40;;;;;;5112536;28;20383;-69
2022/09/27 07:43:18;;;;;;;;;;;18.70;98.20;;;;;;5113632;28;20352;-70
2022/09/27 07:45:45;;;;;;;;;;;18.80;98.20;;;;;;5113183;28;20367;-71
2022/09/27 07:48:15;;;;;;;;;;;18.70;98.10;;;;;;5100546;28;19954;-72
2022/09/27 07:50:42;;;;;;;;;;;18.70;98.10;;;;;;5093232;28;20388;-72
2022/09/27 07:53:12;;;;;;;;;;;18.60;97.80;;;;;;5093785;28;19908;-70
2022/09/27 07:55:39;;;;;;;;;;;18.50;98.20;;;;;;5094130;28;20003;-70
2022/09/27 07:58:07;;;;;;;;;;;18.50;98.30;;;;;;5093346;28;19912;-70
2022/09/27 08:00:35;;;;;;;;;;;18.40;98.30;;;;;;5093452;28;19930;-71
2022/09/27 08:03:06;;;;;;;;;;;18.30;98.40;;;;;;5093407;28;19912;-70
2022/09/27 08:05:33;;;;;;;;;;;18.30;98.70;;;;;;5093842;28;19915;-71
2022/09/27 08:08:00;;;;;;;;;;;18.30;98.90;;;;;;5093477;28;19937;-71
2022/09/27 08:10:30;;;;;;;;;;;18.20;98.80;;;;;;5093435;28;19908;-71
2022/09/27 08:13:03;;;;;;;;;;;18.30;98.90;;;;;;5093074;28;19908;-71
2022/09/27 08:15:37;;;;;;;;;;;18.30;98.90;;;;;;5093033;28;19908;-70
2022/09/27 08:18:05;;;;;;;;;;;18.20;98.90;;;;;;5092602;28;19957;-72
2022/09/27 08:20:32;;;;;;;;;;;18.20;98.70;;;;;;5093476;28;19940;-69
2022/09/27 08:22:58;;;;;;;;;;;18.20;98.60;;;;;;5092942;28;19968;-70
2022/09/27 08:25:27;;;;;;;;;;;18.20;98.90;;;;;;5093407;28;19908;-69
2022/09/27 08:27:57;;;;;;;;;;;18.20;99.00;;;;;;5092983;28;19909;-71
2022/09/27 08:30:24;;;;;;;;;;;18.20;99.20;;;;;;5093233;28;20280;-69
2022/09/27 08:33:01;;;;;;;;;;;18.10;99.30;;;;;;5093143;28;19908;-69
2022/09/27 08:35:28;;;;;;;;;;;18.20;99.60;;;;;;5093027;28;19908;-72
2022/09/27 08:37:56;;;;;;;;;;;18.10;99.00;;;;;;5074453;28;20284;-71
2022/09/27 08:40:26;;;;;;;;;;;18.10;98.90;;;;;;5093290;28;20325;-71
2022/09/27 08:43:08;;;;;;;;;;;18.10;99.10;;;;;;5092800;28;19912;-70
2022/09/27 08:45:39;;;;;;;;;;;18.00;98.80;;;;;;5093053;28;19908;-72
2022/09/27 08:48:06;;;;;;;;;;;18.00;98.60;;;;;;5101667;28;19912;-69
2022/09/27 08:50:37;;;;;;;;;;;18.00;98.70;;;;;;5113274;28;20264;-70
2022/09/27 08:53:15;;;;;;;;;;;18.00;98.80;;;;;;5113142;28;19953;-70
2022/09/27 08:55:46;;;;;;;;;;;18.00;99.10;;;;;;5113520;28;19947;-71
2022/09/27 08:58:21;;;;;;;;;;;18.00;98.80;;;;;;5112776;28;19908;-70
2022/09/27 09:00:50;;;;;;;;;;;18.00;99.10;;;;;;5112657;28;19928;-70
2022/09/27 09:03:19;;;;;;;;;;;18.00;99.10;;;;;;5112732;28;19908;-72
2022/09/27 09:05:54;;;;;;;;;;;18.00;98.80;;;;;;5112978;28;19918;-73
2022/09/27 09:08:21;;;;;;;;;;;18.00;98.50;;;;;;5101277;28;19978;-71
2022/09/27 09:13:35;;;;;;;;;;;18.00;98.70;;;;;;5092499;28;20322;-72
2022/09/27 09:16:12;;;;;;;;;;;18.00;98.40;;;;;;5091912;28;19908;-72
2022/09/27 09:18:42;;;;;;;;;;;17.90;97.50;;;;;;5091968;28;19909;-71
2022/09/27 09:21:14;;;;;;;;;;;18.00;97.50;;;;;;5092153;28;19920;-71
2022/09/27 09:23:53;;;;;;;;;;;18.00;97.40;;;;;;5092289;28;19908;-71
2022/09/27 09:26:22;;;;;;;;;;;17.90;97.10;;;;;;5092043;28;19948;-71
2022/09/27 09:28:49;;;;;;;;;;;18.00;97.20;;;;;;5091985;28;20348;-70
2022/09/27 09:31:22;;;;;;;;;;;18.00;97.20;;;;;;5092247;28;19919;-70
2022/09/27 09:33:51;;;;;;;;;;;18.00;97.40;;;;;;5092330;28;19908;-72
2022/09/27 09:36:50;;;;;;;;;;;18.00;97.50;;;;;;5092261;28;20271;-70
2022/09/27 09:39:23;;;;;;;;;;;18.00;97.40;;;;;;5068830;28;19915;-69
2022/09/27 09:42:02;;;;;;;;;;;18.00;97.00;;;;;;5091748;28;19957;-72
2022/09/27 09:44:31;;;;;;;;;;;18.00;97.00;;;;;;5091878;28;19908;-69
2022/09/27 09:46:59;;;;;;;;;;;18.00;97.00;;;;;;5091970;28;19908;-70
2022/09/27 09:49:26;;;;;;;;;;;18.00;97.10;;;;;;5092256;28;19919;-70
2022/09/27 09:51:55;;;;;;;;;;;17.90;97.30;;;;;;5092154;28;20364;-72
2022/09/27 09:54:26;;;;;;;;;;;17.90;97.30;;;;;;5091856;28;19975;-70
2022/09/27 09:56:59;;;;;;;;;;;17.90;97.70;;;;;;5091786;28;20324;-70
2022/09/27 09:59:34;;;;;;;;;;;17.90;97.70;;;;;;5091790;28;20392;-72
2022/09/27 10:02:13;;;;;;;;;;;17.90;98.40;;;;;;5091676;28;20300;-70
2022/09/27 10:04:39;;;;;;;;;;;17.90;98.70;;;;;;5091131;28;19908;-70
2022/09/27 10:07:07;;;;;;;;;;;17.90;98.70;;;;;;5073314;28;19912;-69
2022/09/27 10:09:35;;;;;;;;;;;17.90;98.50;;;;;;5091817;28;20025;-70
2022/09/27 10:12:01;;;;;;;;;;;17.90;98.70;;;;;;5073874;28;19908;-70
2022/09/27 10:14:28;;;;;;;;;;;17.90;98.80;;;;;;5091881;28;19908;-72
2022/09/27 10:16:57;;;;;;;;;;;17.90;99.00;;;;;;5091797;28;19947;-71
2022/09/27 10:19:30;;;;;;;;;;;17.90;99.20;;;;;;5091896;28;19915;-71
2022/09/27 10:22:11;;;;;;;;;;;17.90;99.40;;;;;;5092687;28;19917;-71
2022/09/27 10:25:04;;;;;;;;;;;17.90;99.70;;;;;;5095971;28;19919;-70
2022/09/27 10:27:42;;;;;;;;;;;17.90;99.90;;;;;;5095998;28;19931;-70
2022/09/27 10:30:22;;;;;;;;;;;17.90;99.90;;;;;;5095633;28;20318;-72
2022/09/27 10:32:50;;;;;;;;;;;17.80;99.90;;;;;;5095519;28;19908;-72
2022/09/27 10:35:20;;;;;;;;;;;17.90;99.90;;;;;;5095805;28;20360;-71
2022/09/27 10:37:47;;;;;;;;;;;17.90;99.90;;;;;;5096045;28;19961;-71
2022/09/27 10:40:39;;;;;;;;;;;17.90;99.90;;;;;;5077464;28;20756;-69
2022/09/27 10:43:25;;;;;;;;;;;17.90;99.90;;;;;;5092415;28;19908;-69
2022/09/27 10:45:59;;;;;;;;;;;18.00;99.90;;;;;;5095339;28;20314;-71
2022/09/27 10:48:26;;;;;;;;;;;18.00;99.90;;;;;;5095409;28;19912;-73
2022/09/27 10:50:58;;;;;;;;;;;18.00;99.90;;;;;;5095493;28;19947;-70
2022/09/27 10:53:24;;;;;;;;;;;18.00;99.90;;;;;;5095597;28;20379;-72
2022/09/27 10:55:52;;;;;;;;;;;18.00;99.90;;;;;;5077583;28;19908;-72
2022/09/27 10:58:30;;;;;;;;;;;18.00;99.90;;;;;;5095294;28;19915;-72
2022/09/27 11:01:07;;;;;;;;;;;17.90;99.90;;;;;;5094837;28;19973;-72
2022/09/27 11:03:38;;;;;;;;;;;17.90;99.90;;;;;;5095024;28;19915;-72
2022/09/27 11:06:20;;;;;;;;;;;17.90;99.90;;;;;;5095078;28;19998;-71
2022/09/27 11:08:47;;;;;;;;;;;17.90;99.90;;;;;;5095027;28;19973;-72
2022/09/27 11:11:15;;;;;;;;;;;17.80;99.90;;;;;;5094481;28;19908;-72
2022/09/27 11:13:56;;;;;;;;;;;17.80;99.90;;;;;;5094878;28;19915;-70
2022/09/27 11:16:38;;;;;;;;;;;17.90;99.90;;;;;;5076693;28;20276;-71
2022/09/27 11:19:22;;;;;;;;;;;17.70;99.90;;;;;;5094900;28;19947;-72
2022/09/27 11:21:48;;;;;;;;;;;17.70;99.90;;;;;;5094819;28;19916;-70
2022/09/27 11:24:28;;;;;;;;;;;17.70;99.90;;;;;;5095073;28;19908;-71
2022/09/27 11:26:55;;;;;;;;;;;17.70;99.90;;;;;;5094842;28;19955;-71
2022/09/27 11:29:45;;;;;;;;;;;17.60;99.90;;;;;;5094800;28;20352;-70
2022/09/27 11:32:14;;;;;;;;;;;17.60;99.90;;;;;;5094223;28;19913;-72
2022/09/27 11:34:42;;;;;;;;;;;17.60;99.90;;;;;;5076392;28;19912;-71
2022/09/27 11:37:15;;;;;;;;;;;17.60;99.90;;;;;;5094541;28;19916;-71
2022/09/27 11:39:45;;;;;;;;;;;17.60;99.90;;;;;;5094543;28;19970;-70
2022/09/27 11:42:40;;;;;;;;;;;17.60;99.90;;;;;;5094181;28;19962;-71
2022/09/27 11:45:12;;;;;;;;;;;17.60;99.90;;;;;;5076188;28;19953;-70
2022/09/27 11:47:49;;;;;;;;;;;17.50;99.90;;;;;;5094266;28;19936;-69
2022/09/27 11:50:20;;;;;;;;;;;17.50;99.90;;;;;;5094378;28;20427;-70
2022/09/27 11:53:04;;;;;;;;;;;17.40;99.90;;;;;;5093687;28;20253;-70
2022/09/27 11:55:42;;;;;;;;;;;17.40;99.90;;;;;;5094344;28;20276;-70
2022/09/27 11:58:18;;;;;;;;;;;17.40;99.90;;;;;;5094263;28;19966;-71
2022/09/27 12:00:47;;;;;;;;;;;17.40;99.90;;;;;;5093588;28;20064;-73
2022/09/27 12:03:31;;;;;;;;;;;17.40;99.90;;;;;;5093879;28;20257;-71
2022/09/27 12:06:01;;;;;;;;;;;17.40;99.90;;;;;;5094036;28;19962;-72
2022/09/27 12:08:41;;;;;;;;;;;17.40;99.90;;;;;;5094004;28;19951;-70
2022/09/27 12:11:13;;;;;;;;;;;17.40;99.90;;;;;;5075543;28;19999;-71
2022/09/27 12:13:48;;;;;;;;;;;17.40;99.90;;;;;;5075722;28;20472;-70
2022/09/27 12:16:16;;;;;;;;;;;17.40;99.90;;;;;;5093755;28;19908;-71
2022/09/27 12:18:44;;;;;;;;;;;17.30;99.90;;;;;;5093716;28;19934;-70
2022/09/27 12:21:11;;;;;;;;;;;17.30;99.90;;;;;;5093472;28;19916;-71
2022/09/27 12:23:46;;;;;;;;;;;17.20;99.90;;;;;;5093473;28;19931;-71
2022/09/27 12:26:21;;;;;;;;;;;17.30;99.90;;;;;;5093460;28;20041;-71
2022/09/27 12:29:17;;;;;;;;;;;17.20;99.90;;;;;;5093368;28;20368;-70
2022/09/27 12:31:51;;;;;;;;;;;17.20;99.90;;;;;;5079399;28;19917;-72
2022/09/27 12:34:21;;;;;;;;;;;17.20;99.90;;;;;;5102979;28;19908;-71
2022/09/27 12:37:11;;;;;;;;;;;17.30;99.90;;;;;;5093473;28;19973;-72
2022/09/27 12:39:47;;;;;;;;;;;17.30;99.90;;;;;;5105024;28;19960;-70
2022/09/27 12:42:32;;;;;;;;;;;17.30;99.90;;;;;;5112331;28;19923;-71
2022/09/27 12:44:59;;;;;;;;;;;17.40;99.90;;;;;;5112423;28;19912;-70
2022/09/27 12:47:32;;;;;;;;;;;17.40;99.90;;;;;;5112494;28;19998;-71
2022/09/27 12:50:33;;;;;;;;;;;17.40;99.90;;;;;;5100026;28;19954;-70
2022/09/27 12:53:07;;;;;;;;;;;17.50;99.90;;;;;;5061612;28;19965;-71
2022/09/27 12:55:53;;;;;;;;;;;17.50;99.90;;;;;;5089089;28;20334;-73
2022/09/27 12:58:40;;;;;;;;;;;17.50;99.90;;;;;;5073687;28;19919;-71
2022/09/27 13:01:20;;;;;;;;;;;17.50;99.90;;;;;;5069668;28;20299;-71
2022/09/27 13:04:07;;;;;;;;;;;17.60;99.90;;;;;;5088737;28;20254;-73
2022/09/27 13:06:46;;;;;;;;;;;17.70;99.90;;;;;;5116117;27;19928;-71
2022/09/27 13:09:12;;;;;;;;;;;17.60;99.90;;;;;;5090437;28;19935;-70
2022/09/27 13:12:00;;;;;;;;;;;17.70;99.90;;;;;;5109806;28;19914;-70
2022/09/27 13:14:28;;;;;;;;;;;17.60;99.90;;;;;;5121793;27;19923;-71
2022/09/27 13:16:54;;;;;;;;;;;17.60;99.90;;;;;;5118574;27;19911;-72
2022/09/27 13:19:41;;;;;;;;;;;17.60;99.90;;;;;;5121573;27;19915;-73
2022/09/27 13:22:26;;;;;;;;;;;17.60;99.90;;;;;;5121305;27;19916;-70
2022/09/27 13:24:53;;;;;;;;;;;17.50;99.90;;;;;;5111186;27;19958;-71
2022/09/27 13:27:23;;;;;;;;;;;17.60;99.90;;;;;;5112236;28;19930;-71
2022/09/27 13:29:50;;;;;;;;;;;17.50;99.90;;;;;;5110666;28;20364;-70
2022/09/27 13:32:21;;;;;;;;;;;17.60;99.90;;;;;;5109258;28;19983;-70
2022/09/27 13:34:52;;;;;;;;;;;17.60;99.90;;;;;;5111967;28;19914;-71
2022/09/27 13:37:35;;;;;;;;;;;17.60;99.90;;;;;;5094453;28;20287;-70
2022/09/27 13:40:28;;;;;;;;;;;17.50;99.90;;;;;;5109610;28;19914;-68
2022/09/27 13:42:54;;;;;;;;;;;17.40;99.90;;;;;;5103509;28;19956;-69
2022/09/27 13:45:28;;;;;;;;;;;17.40;99.90;;;;;;5111626;28;20335;-68
2022/09/27 13:47:56;;;;;;;;;;;17.30;99.90;;;;;;5110877;28;20287;-68
2022/09/27 13:50:37;;;;;;;;;;;17.30;99.90;;;;;;5111640;28;20007;-68
2022/09/27 13:53:08;;;;;;;;;;;17.20;99.90;;;;;;5111218;28;19907;-68
2022/09/27 13:55:35;;;;;;;;;;;17.30;99.90;;;;;;5111209;28;19960;-66
2022/09/27 13:58:04;;;;;;;;;;;17.20;99.90;;;;;;5111708;28;20306;-67
2022/09/27 14:00:33;;;;;;;;;;;17.20;99.90;;;;;;5111950;28;20607;-68
2022/09/27 14:03:02;;;;;;;;;;;17.20;99.90;;;;;;5108390;28;20332;-67
2022/09/27 14:05:43;;;;;;;;;;;17.20;99.90;;;;;;5091472;28;19912;-66
2022/09/27 14:08:38;;;;;;;;;;;17.30;99.90;;;;;;5091757;28;20376;-68
2022/09/27 14:11:11;;;;;;;;;;;17.30;99.90;;;;;;5077909;28;19989;-67
2022/09/27 14:13:39;;;;;;;;;;;17.20;99.90;;;;;;5091856;28;19931;-71
2022/09/27 14:16:06;;;;;;;;;;;17.10;99.90;;;;;;5091759;28;19912;-70
2022/09/27 14:18:35;;;;;;;;;;;17.10;99.90;;;;;;5091767;28;20003;-69
2022/09/27 14:21:28;;;;;;;;;;;17.10;99.90;;;;;;5091599;28;19957;-69
2022/09/27 14:24:14;;;;;;;;;;;17.10;99.90;;;;;;5088639;28;20349;-68
2022/09/27 14:26:41;;;;;;;;;;;17.10;99.90;;;;;;5091300;28;19915;-68
2022/09/27 14:29:18;;;;;;;;;;;17.10;99.90;;;;;;5091640;28;19935;-70
2022/09/27 14:31:47;;;;;;;;;;;17.10;99.90;;;;;;5091300;28;20076;-68
2022/09/27 14:34:13;;;;;;;;;;;17.10;99.90;;;;;;5091296;28;19952;-68
2022/09/27 14:39:31;;;;;;;;;;;17.10;99.90;;;;;;5091549;28;19969;-67
2022/09/27 14:42:02;;;;;;;;;;;17.10;99.90;;;;;;5073464;28;19964;-67
2022/09/27 14:44:30;;;;;;;;;;;17.10;99.90;;;;;;5091330;28;20395;-69
2022/09/27 14:47:10;;;;;;;;;;;17.20;99.90;;;;;;5091389;28;19961;-69
2022/09/27 14:49:45;;;;;;;;;;;17.20;99.90;;;;;;5091504;28;19908;-69